createdAt,value
2018-11-07T00:00:52.307Z,10.97
2018-11-07T00:03:20.893Z,10.07
2018-11-07T00:05:49.285Z,10.00
2018-11-07T00:08:17.933Z,9.57
2018-11-07T00:10:46.145Z,11.00
2018-11-07T00:13:14.515Z,10.83
2018-11-07T00:15:42.887Z,10.60
2018-11-07T00:18:11.412Z,9.33
2018-11-07T00:20:39.745Z,9.40
2018-11-07T00:23:08.133Z,10.73
2018-11-07T00:25:36.490Z,9.47
2018-11-07T00:28:04.829Z,10.10
2018-11-07T00:30:34.257Z,10.90
2018-11-07T00:33:02.684Z,10.63
2018-11-07T00:35:31.093Z,12.03
2018-11-07T00:37:59.537Z,9.93
2018-11-07T00:40:27.967Z,11.20
2018-11-07T00:42:56.344Z,10.90
2018-11-07T00:45:24.669Z,11.77
2018-11-07T00:47:52.975Z,10.87
2018-11-07T00:50:21.280Z,12.07
2018-11-07T00:52:49.536Z,11.97
2018-11-07T00:55:17.843Z,10.63
2018-11-07T00:57:46.202Z,10.37
2018-11-07T01:00:21.648Z,11.13
2018-11-07T01:02:50.329Z,11.47
2018-11-07T01:05:18.611Z,10.50
2018-11-07T01:07:47.687Z,11.53
2018-11-07T01:10:16.026Z,11.23
2018-11-07T01:12:44.679Z,10.60
2018-11-07T01:15:13.554Z,10.70
2018-11-07T01:17:41.872Z,11.67
2018-11-07T01:20:11.830Z,11.03
2018-11-07T01:22:40.120Z,10.87
2018-11-07T01:25:09.003Z,10.77
2018-11-07T01:27:37.358Z,11.57
2018-11-07T01:30:07.797Z,11.90
2018-11-07T01:32:36.194Z,10.17
2018-11-07T01:35:04.919Z,11.27
2018-11-07T01:37:33.324Z,10.00
2018-11-07T01:40:01.710Z,11.80
2018-11-07T01:42:30.148Z,12.63
2018-11-07T01:44:58.568Z,10.97
2018-11-07T01:47:27.044Z,11.77
2018-11-07T01:49:55.486Z,10.93
2018-11-07T01:52:23.952Z,11.37
2018-11-07T01:54:52.345Z,11.17
2018-11-07T01:57:20.689Z,11.67
2018-11-07T01:59:49.185Z,12.10
2018-11-07T02:02:17.580Z,12.30
2018-11-07T02:04:45.980Z,10.30
2018-11-07T02:07:14.405Z,10.67
2018-11-07T02:09:42.816Z,11.87
2018-11-07T02:12:11.721Z,12.07
2018-11-07T02:14:40.097Z,11.90
2018-11-07T02:17:08.518Z,10.87
2018-11-07T02:19:37.136Z,10.43
2018-11-07T02:22:05.910Z,12.23
2018-11-07T02:24:34.307Z,10.67
2018-11-07T02:27:02.874Z,11.23
2018-11-07T02:29:31.208Z,10.70
2018-11-07T02:31:59.620Z,14.07
2018-11-07T02:34:27.962Z,10.13
2018-11-07T02:36:56.443Z,10.53
2018-11-07T02:39:24.881Z,10.60
2018-11-07T02:41:53.375Z,11.90
2018-11-07T02:44:21.659Z,10.83
2018-11-07T02:46:50.017Z,11.53
2018-11-07T02:49:18.392Z,11.37
2018-11-07T02:51:46.687Z,10.67
2018-11-07T02:54:15.081Z,10.30
2018-11-07T02:56:43.438Z,10.10
2018-11-07T02:59:11.747Z,10.47
2018-11-07T03:01:40.211Z,11.47
2018-11-07T03:04:08.598Z,10.40
2018-11-07T03:06:36.968Z,9.43
2018-11-07T03:09:08.065Z,10.60
2018-11-07T03:11:36.403Z,10.30
2018-11-07T03:14:05.106Z,10.50
2018-11-07T03:16:33.438Z,10.67
2018-11-07T03:19:01.811Z,10.63
2018-11-07T03:21:30.233Z,10.90
2018-11-07T03:23:58.769Z,10.97
2018-11-07T03:26:27.127Z,11.07
2018-11-07T03:28:55.501Z,10.87
2018-11-07T03:31:23.873Z,11.83
2018-11-07T03:33:52.509Z,10.57
2018-11-07T03:36:20.890Z,10.80
2018-11-07T03:38:49.464Z,10.57
2018-11-07T03:41:17.818Z,10.10
2018-11-07T03:43:46.179Z,10.00
2018-11-07T03:46:14.677Z,11.27
2018-11-07T03:48:42.999Z,10.60
2018-11-07T03:51:11.380Z,10.20
2018-11-07T03:53:39.766Z,10.87
2018-11-07T03:56:08.171Z,10.60
2018-11-07T03:58:36.561Z,10.67
2018-11-07T04:01:05.057Z,10.03
2018-11-07T04:03:33.514Z,9.57
2018-11-07T04:06:01.916Z,10.50
2018-11-07T04:08:30.204Z,10.27
2018-11-07T04:10:58.558Z,10.83
2018-11-07T04:13:26.882Z,10.77
2018-11-07T04:15:55.178Z,10.67
2018-11-07T04:18:23.455Z,10.37
2018-11-07T04:20:51.805Z,10.20
2018-11-07T04:23:20.166Z,10.80
2018-11-07T04:25:48.437Z,10.40
2018-11-07T04:28:16.720Z,9.30
2018-11-07T04:30:45.126Z,10.20
2018-11-07T04:33:13.532Z,10.40
2018-11-07T04:35:41.928Z,12.90
2018-11-07T04:38:10.277Z,11.10
2018-11-07T04:40:38.627Z,10.90
2018-11-07T04:43:07.388Z,9.93
2018-11-07T04:45:35.727Z,9.50
2018-11-07T04:48:04.114Z,10.10
2018-11-07T04:50:32.537Z,10.20
2018-11-07T04:53:00.977Z,10.27
2018-11-07T04:55:29.305Z,9.67
2018-11-07T04:57:57.704Z,10.27
2018-11-07T05:00:26.129Z,10.07
2018-11-07T05:02:54.479Z,10.30
2018-11-07T05:05:22.814Z,9.90
2018-11-07T05:07:51.181Z,10.50
2018-11-07T05:10:19.516Z,10.30
2018-11-07T05:12:47.985Z,10.10
2018-11-07T05:15:16.392Z,12.30
2018-11-07T05:17:44.796Z,10.67
2018-11-07T05:20:13.147Z,10.30
2018-11-07T05:22:41.476Z,10.00
2018-11-07T05:25:10.775Z,9.60
2018-11-07T05:27:39.150Z,9.40
2018-11-07T05:30:08.794Z,9.97
2018-11-07T05:32:37.263Z,13.70
2018-11-07T05:35:06.288Z,12.50
2018-11-07T05:37:34.633Z,9.33
2018-11-07T05:40:03.001Z,9.93
2018-11-07T05:42:31.374Z,12.40
2018-11-07T05:44:59.746Z,10.10
2018-11-07T05:47:28.099Z,10.90
2018-11-07T05:49:56.459Z,10.40
2018-11-07T05:52:24.813Z,10.60
2018-11-07T05:54:53.201Z,9.60
2018-11-07T05:57:21.599Z,10.60
2018-11-07T05:59:50.116Z,10.27
2018-11-07T06:02:18.611Z,11.30
2018-11-07T06:04:47.001Z,11.23
2018-11-07T06:07:15.411Z,9.90
2018-11-07T06:09:43.857Z,10.97
2018-11-07T06:12:12.291Z,10.40
2018-11-07T06:14:40.618Z,10.20
2018-11-07T06:17:08.927Z,10.37
2018-11-07T06:19:37.453Z,11.03
2018-11-07T06:22:06.083Z,11.03
2018-11-07T06:24:34.527Z,10.90
2018-11-07T06:27:03.822Z,11.00
2018-11-07T06:29:32.572Z,10.83
2018-11-07T06:32:01.286Z,10.73
2018-11-07T06:34:29.737Z,11.80
2018-11-07T06:36:58.078Z,10.20
2018-11-07T06:39:26.481Z,11.00
2018-11-07T06:41:54.807Z,10.83
2018-11-07T06:44:23.300Z,10.87
2018-11-07T06:46:51.747Z,11.40
2018-11-07T06:49:20.163Z,10.23
2018-11-07T06:51:49.237Z,10.07
2018-11-07T06:54:17.694Z,11.53
2018-11-07T06:56:46.181Z,9.43
2018-11-07T06:59:14.619Z,10.47
2018-11-07T07:01:43.005Z,9.50
2018-11-07T07:04:11.442Z,9.17
2018-11-07T07:06:39.794Z,10.10
2018-11-07T07:09:09.175Z,10.80
2018-11-07T07:11:37.539Z,9.70
2018-11-07T07:14:06.007Z,9.53
2018-11-07T07:16:34.421Z,10.10
2018-11-07T07:19:02.849Z,10.63
2018-11-07T07:21:31.338Z,9.90
2018-11-07T07:23:59.779Z,9.80
2018-11-07T07:26:28.191Z,9.60
2018-11-07T07:28:56.556Z,8.93
2018-11-07T07:31:25.067Z,9.80
2018-11-07T07:33:53.516Z,10.67
2018-11-07T07:36:21.959Z,9.10
2018-11-07T07:38:50.306Z,8.87
2018-11-07T07:41:18.723Z,9.73
2018-11-07T07:43:47.083Z,9.80
2018-11-07T07:46:15.444Z,9.20
2018-11-07T07:48:43.833Z,9.80
2018-11-07T07:51:12.327Z,10.10
2018-11-07T07:53:40.845Z,9.70
2018-11-07T07:56:09.310Z,11.50
2018-11-07T07:58:37.893Z,10.70
2018-11-07T08:01:06.366Z,10.87
2018-11-07T08:03:34.657Z,11.40
2018-11-07T08:06:03.075Z,10.17
2018-11-07T08:08:31.496Z,10.10
2018-11-07T08:10:59.875Z,12.10
2018-11-07T08:13:28.302Z,11.43
2018-11-07T08:15:56.697Z,10.57
2018-11-07T08:18:25.014Z,13.07
2018-11-07T08:20:53.434Z,9.17
2018-11-07T08:23:21.836Z,11.43
2018-11-07T08:25:50.253Z,9.97
2018-11-07T08:28:18.598Z,12.30
2018-11-07T08:30:47.026Z,10.27
2018-11-07T08:33:15.369Z,9.93
2018-11-07T08:35:43.717Z,11.67
2018-11-07T08:38:12.104Z,9.43
2018-11-07T08:40:40.645Z,10.90
2018-11-07T08:43:09.054Z,10.13
2018-11-07T08:45:37.399Z,9.43
2018-11-07T08:48:06.298Z,10.97
2018-11-07T08:50:34.581Z,9.90
2018-11-07T08:53:03.011Z,11.00
2018-11-07T08:55:31.351Z,10.83
2018-11-07T08:57:59.773Z,10.27
2018-11-07T09:00:28.147Z,10.27
2018-11-07T09:02:56.533Z,10.67
2018-11-07T09:05:24.901Z,10.80
2018-11-07T09:07:53.252Z,10.20
2018-11-07T09:10:22.966Z,10.83
2018-11-07T09:12:51.305Z,11.60
2018-11-07T09:15:20.914Z,10.10
2018-11-07T09:17:49.273Z,11.67
2018-11-07T09:20:19.833Z,11.47
2018-11-07T09:22:48.201Z,12.03
2018-11-07T09:25:17.024Z,12.50
2018-11-07T09:27:46.113Z,12.30
2018-11-07T09:30:18.085Z,12.20
2018-11-07T09:32:46.459Z,12.87
2018-11-07T09:35:14.964Z,11.80
2018-11-07T09:37:43.335Z,11.70
2018-11-07T09:40:16.771Z,12.37
2018-11-07T09:42:46.094Z,13.03
2018-11-07T09:45:15.885Z,12.70
2018-11-07T09:47:44.884Z,11.90
2018-11-07T09:50:14.139Z,12.17
2018-11-07T09:52:42.884Z,12.70
2018-11-07T09:55:13.153Z,12.33
2018-11-07T09:57:41.620Z,11.80
2018-11-07T10:00:13.857Z,12.43
2018-11-07T10:02:43.048Z,14.50
2018-11-07T10:05:12.086Z,12.67
2018-11-07T10:07:41.065Z,11.80
2018-11-07T10:10:11.635Z,12.90
2018-11-07T10:12:40.712Z,13.70
2018-11-07T10:15:09.702Z,12.50
2018-11-07T10:17:38.335Z,11.90
2018-11-07T10:20:10.264Z,12.20
2018-11-07T10:22:38.796Z,12.23
2018-11-07T10:25:07.781Z,12.93
2018-11-07T10:27:36.452Z,12.23
2018-11-07T10:30:05.470Z,10.90
2018-11-07T10:32:33.573Z,11.00
2018-11-07T10:35:01.917Z,11.33
2018-11-07T10:37:32.465Z,10.03
2018-11-07T10:39:58.794Z,10.23
2018-11-07T10:42:27.207Z,10.27
2018-11-07T10:44:55.653Z,10.97
2018-11-07T10:47:24.377Z,9.53
2018-11-07T10:49:53.077Z,11.30
2018-11-07T10:52:21.512Z,9.70
2018-11-07T10:54:49.932Z,10.50
2018-11-07T10:57:18.364Z,9.70
2018-11-07T10:59:46.832Z,10.93
2018-11-07T11:02:20.596Z,11.27
2018-11-07T11:04:48.989Z,10.30
2018-11-07T11:07:17.457Z,13.33
2018-11-07T11:09:45.794Z,10.10
2018-11-07T11:12:14.182Z,12.40
2018-11-07T11:14:42.987Z,10.97
2018-11-07T11:17:11.446Z,11.00
2018-11-07T11:19:39.834Z,9.37
2018-11-07T11:22:08.219Z,9.33
2018-11-07T11:24:36.619Z,9.10
2018-11-07T11:27:05.431Z,8.30
2018-11-07T11:29:33.785Z,8.13
2018-11-07T11:32:02.191Z,8.20
2018-11-07T11:34:30.723Z,9.40
2018-11-07T11:36:59.085Z,9.40
2018-11-07T11:39:27.482Z,8.07
2018-11-07T11:41:55.790Z,8.00
2018-11-07T11:44:24.203Z,8.10
2018-11-07T11:46:52.616Z,7.30
2018-11-07T11:49:27.733Z,8.33
2018-11-07T11:51:56.051Z,8.03
2018-11-07T11:54:24.410Z,7.37
2018-11-07T11:56:53.313Z,6.33
2018-11-07T11:59:21.765Z,6.93
2018-11-07T12:01:50.151Z,5.60
2018-11-07T12:04:18.514Z,7.10
2018-11-07T12:06:46.937Z,6.17
2018-11-07T12:09:15.276Z,5.57
2018-11-07T12:11:43.724Z,6.30
2018-11-07T12:14:12.094Z,6.97
2018-11-07T12:16:40.504Z,6.40
2018-11-07T12:19:08.945Z,6.13
2018-11-07T12:21:37.266Z,6.50
2018-11-07T12:24:09.830Z,5.97
2018-11-07T12:26:38.303Z,6.40
2018-11-07T12:29:06.651Z,4.93
2018-11-07T12:31:35.036Z,4.93
2018-11-07T12:34:03.464Z,5.90
2018-11-07T12:36:31.879Z,6.10
2018-11-07T12:39:00.187Z,5.10
2018-11-07T12:41:28.619Z,6.73
2018-11-07T12:43:56.958Z,6.87
2018-11-07T12:46:25.394Z,6.37
2018-11-07T12:48:53.769Z,7.17
2018-11-07T12:51:22.197Z,7.23
2018-11-07T12:53:50.630Z,7.43
2018-11-07T12:56:18.981Z,7.67
2018-11-07T12:58:47.390Z,8.00
2018-11-07T13:01:15.683Z,8.47
2018-11-07T13:03:43.987Z,8.27
2018-11-07T13:06:12.367Z,7.23
2018-11-07T13:08:40.792Z,7.50
2018-11-07T13:11:09.296Z,8.77
2018-11-07T13:13:37.684Z,8.10
2018-11-07T13:16:06.059Z,7.77
2018-11-07T13:18:34.393Z,8.73
2018-11-07T13:21:02.802Z,8.63
2018-11-07T13:23:31.264Z,8.30
2018-11-07T13:25:59.648Z,8.20
2018-11-07T13:28:28.163Z,8.60
2018-11-07T13:30:56.546Z,8.70
2018-11-07T13:33:25.042Z,10.60
2018-11-07T13:35:53.457Z,10.73
2018-11-07T13:38:22.187Z,10.17
2018-11-07T13:40:50.348Z,10.50
2018-11-07T13:43:18.729Z,9.90
2018-11-07T13:45:47.059Z,9.03
2018-11-07T13:48:15.413Z,10.07
2018-11-07T13:50:43.860Z,10.23
2018-11-07T13:53:12.334Z,10.53
2018-11-07T13:55:40.633Z,11.30
2018-11-07T13:58:09.062Z,9.20
2018-11-07T14:00:37.471Z,10.60
2018-11-07T14:03:05.930Z,9.77
2018-11-07T14:05:34.455Z,11.00
2018-11-07T14:08:02.630Z,10.90
2018-11-07T14:10:31.020Z,10.30
2018-11-07T14:12:59.389Z,9.97
2018-11-07T14:15:27.747Z,9.73
2018-11-07T14:17:56.236Z,10.07
2018-11-07T14:20:24.685Z,10.10
2018-11-07T14:22:53.113Z,9.60
2018-11-07T14:25:21.501Z,8.53
2018-11-07T14:27:49.999Z,8.93
2018-11-07T14:30:19.434Z,9.30
2018-11-07T14:32:52.029Z,7.97
2018-11-07T14:35:20.921Z,7.00
2018-11-07T14:37:49.367Z,6.30
2018-11-07T14:40:17.796Z,5.93
2018-11-07T14:42:46.165Z,5.07
2018-11-07T14:45:14.531Z,5.60
2018-11-07T14:47:43.221Z,6.00
2018-11-07T14:50:12.336Z,6.00
2018-11-07T14:52:40.739Z,6.30
2018-11-07T14:55:10.035Z,6.17
2018-11-07T14:57:38.413Z,6.73
2018-11-07T15:00:09.523Z,6.87
2018-11-07T15:02:38.276Z,8.13
2018-11-07T15:05:08.132Z,7.73
2018-11-07T15:07:36.563Z,7.23
2018-11-07T15:10:05.577Z,8.13
2018-11-07T15:12:33.961Z,7.57
2018-11-07T15:15:02.332Z,7.43
2018-11-07T15:17:30.781Z,8.47
2018-11-07T15:19:59.220Z,7.67
2018-11-07T15:22:27.581Z,8.03
2018-11-07T15:24:56.047Z,7.97
2018-11-07T15:27:24.415Z,7.97
2018-11-07T15:29:52.850Z,8.33
2018-11-07T15:32:21.245Z,7.20
2018-11-07T15:34:49.683Z,8.57
2018-11-07T15:37:18.120Z,7.80
2018-11-07T15:39:46.567Z,7.13
2018-11-07T15:42:14.919Z,8.30
2018-11-07T15:44:43.330Z,8.10
2018-11-07T15:47:11.807Z,8.23
2018-11-07T15:49:42.524Z,8.90
2018-11-07T15:52:11.221Z,8.50
2018-11-07T15:54:39.765Z,9.33
2018-11-07T15:57:08.120Z,8.97
2018-11-07T15:59:36.531Z,8.37
2018-11-07T16:02:05.174Z,9.33
2018-11-07T16:04:33.563Z,8.57
2018-11-07T16:07:01.955Z,9.77
2018-11-07T16:09:30.428Z,9.77
2018-11-07T16:11:58.847Z,8.33
2018-11-07T16:14:27.240Z,9.87
2018-11-07T16:16:55.638Z,8.40
2018-11-07T16:19:24.036Z,8.77
2018-11-07T16:21:52.764Z,9.90
2018-11-07T16:24:21.189Z,10.33
2018-11-07T16:26:49.558Z,10.13
2018-11-07T16:29:18.034Z,8.57
2018-11-07T16:31:46.575Z,9.10
2018-11-07T16:34:14.929Z,9.20
2018-11-07T16:36:46.233Z,10.07
2018-11-07T16:39:14.591Z,9.00
2018-11-07T16:41:43.046Z,10.10
2018-11-07T16:44:12.116Z,11.63
2018-11-07T16:46:41.907Z,10.33
2018-11-07T16:49:10.373Z,11.20
2018-11-07T16:51:38.985Z,10.77
2018-11-07T16:54:08.910Z,10.90
2018-11-07T16:56:37.279Z,10.53
2018-11-07T16:59:06.033Z,11.63
2018-11-07T17:01:34.395Z,13.20
2018-11-07T17:04:02.791Z,10.67
2018-11-07T17:06:31.762Z,9.93
2018-11-07T17:09:00.183Z,12.77
2018-11-07T17:11:28.480Z,11.67
2018-11-07T17:13:56.870Z,11.30
2018-11-07T17:16:25.311Z,11.17
2018-11-07T17:18:53.807Z,14.60
2018-11-07T17:21:22.251Z,14.07
2018-11-07T17:23:50.687Z,13.73
2018-11-07T17:26:19.036Z,12.93
2018-11-07T17:28:47.417Z,14.33
2018-11-07T17:31:15.772Z,16.00
2018-11-07T17:33:44.148Z,18.90
2018-11-07T17:36:12.872Z,17.93
2018-11-07T17:38:41.336Z,21.50
2018-11-07T17:41:09.693Z,22.90
2018-11-07T17:43:38.028Z,23.40
2018-11-07T17:46:06.799Z,22.77
2018-11-07T17:48:35.760Z,21.70
2018-11-07T17:51:04.215Z,25.50
2018-11-07T17:53:32.647Z,23.17
2018-11-07T17:56:01.024Z,27.30
2018-11-07T17:58:29.428Z,24.53
2018-11-07T18:00:57.813Z,25.60
2018-11-07T18:03:26.174Z,26.47
2018-11-07T18:05:54.578Z,25.83
2018-11-07T18:08:22.926Z,26.93
2018-11-07T18:10:51.435Z,26.23
2018-11-07T18:13:19.830Z,27.77
2018-11-07T18:15:48.264Z,27.00
2018-11-07T18:18:16.708Z,27.10
2018-11-07T18:20:45.121Z,28.80
2018-11-07T18:23:13.577Z,27.70
2018-11-07T18:25:41.999Z,27.67
2018-11-07T18:28:10.297Z,27.27
2018-11-07T18:30:38.867Z,27.57
2018-11-07T18:33:07.258Z,28.33
2018-11-07T18:35:35.735Z,28.53
2018-11-07T18:38:04.215Z,29.33
2018-11-07T18:40:32.545Z,31.53
2018-11-07T18:43:00.987Z,29.57
2018-11-07T18:45:29.267Z,29.10
2018-11-07T18:47:57.783Z,30.50
2018-11-07T18:50:26.305Z,29.83
2018-11-07T18:52:54.661Z,28.37
2018-11-07T18:55:23.131Z,28.00
2018-11-07T18:57:51.553Z,28.43
2018-11-07T19:00:20.795Z,26.60
2018-11-07T19:02:49.828Z,27.70
2018-11-07T19:05:18.496Z,28.77
2018-11-07T19:07:46.907Z,28.10
2018-11-07T19:10:17.200Z,28.87
2018-11-07T19:12:46.524Z,29.63
2018-11-07T19:15:15.701Z,30.63
2018-11-07T19:17:45.385Z,28.93
2018-11-07T19:20:14.921Z,30.40
2018-11-07T19:22:43.346Z,28.70
2018-11-07T19:25:13.506Z,29.00
2018-11-07T19:27:41.888Z,27.50
2018-11-07T19:30:14.613Z,31.80
2018-11-07T19:32:43.918Z,28.90
2018-11-07T19:35:13.485Z,31.17
2018-11-07T19:37:41.843Z,29.73
2018-11-07T19:40:12.415Z,29.20
2018-11-07T19:42:41.074Z,30.13
2018-11-07T19:45:17.635Z,31.70
2018-11-07T19:47:45.938Z,29.20
2018-11-07T19:50:15.601Z,29.23
2018-11-07T19:52:44.813Z,28.07
2018-11-07T19:55:16.311Z,27.77
2018-11-07T19:57:46.377Z,30.20
2018-11-07T20:00:16.056Z,29.60
2018-11-07T20:02:45.263Z,27.80
2018-11-07T20:05:13.712Z,28.07
2018-11-07T20:07:42.086Z,29.43
2018-11-07T20:10:13.405Z,29.00
2018-11-07T20:12:41.812Z,28.40
2018-11-07T20:15:11.777Z,27.37
2018-11-07T20:17:40.378Z,28.37
2018-11-07T20:20:09.916Z,27.67
2018-11-07T20:22:38.346Z,27.33
2018-11-07T20:25:07.771Z,28.27
2018-11-07T20:27:36.300Z,28.57
2018-11-07T20:30:06.614Z,26.90
2018-11-07T20:32:35.009Z,28.90
2018-11-07T20:35:03.337Z,28.00
2018-11-07T20:37:31.743Z,28.57
2018-11-07T20:40:00.771Z,28.37
2018-11-07T20:42:29.189Z,26.77
2018-11-07T20:44:57.826Z,28.70
2018-11-07T20:47:26.328Z,26.17
2018-11-07T20:49:54.881Z,27.07
2018-11-07T20:52:23.327Z,29.60
2018-11-07T20:54:52.777Z,26.40
2018-11-07T20:57:21.115Z,28.07
2018-11-07T20:59:49.822Z,27.30
2018-11-07T21:02:18.226Z,26.50
2018-11-07T21:04:46.618Z,26.63
2018-11-07T21:07:15.015Z,24.30
2018-11-07T21:09:43.556Z,26.13
2018-11-07T21:12:11.957Z,28.53
2018-11-07T21:14:40.443Z,27.50
2018-11-07T21:17:09.007Z,25.80
2018-11-07T21:19:37.487Z,27.27
2018-11-07T21:22:09.883Z,25.40
2018-11-07T21:24:38.342Z,23.83
2018-11-07T21:27:07.515Z,27.50
2018-11-07T21:29:35.857Z,25.20
2018-11-07T21:32:04.716Z,27.00
2018-11-07T21:34:33.216Z,27.20
2018-11-07T21:37:01.829Z,25.00
2018-11-07T21:39:30.597Z,25.70
2018-11-07T21:41:58.967Z,28.00
2018-11-07T21:44:27.399Z,25.70
2018-11-07T21:46:55.857Z,26.37
2018-11-07T21:49:25.869Z,26.73
2018-11-07T21:51:54.326Z,25.57
2018-11-07T21:54:22.918Z,24.87
2018-11-07T21:56:51.414Z,24.17
2018-11-07T21:59:20.133Z,25.50
2018-11-07T22:01:48.629Z,25.70
2018-11-07T22:04:17.015Z,25.93
2018-11-07T22:06:45.458Z,23.90
2018-11-07T22:09:13.850Z,23.97
2018-11-07T22:11:42.169Z,26.53
2018-11-07T22:14:10.660Z,25.60
2018-11-07T22:16:39.330Z,25.70
2018-11-07T22:19:08.139Z,24.90
2018-11-07T22:21:36.537Z,25.60
2018-11-07T22:24:05.164Z,26.07
2018-11-07T22:26:33.464Z,27.17
2018-11-07T22:29:01.854Z,25.37
2018-11-07T22:31:36.112Z,26.60
2018-11-07T22:34:04.638Z,27.50
2018-11-07T22:36:33.038Z,26.27
2018-11-07T22:39:01.568Z,25.80
2018-11-07T22:41:30.048Z,23.40
2018-11-07T22:43:58.405Z,23.77
2018-11-07T22:46:26.810Z,22.63
2018-11-07T22:48:55.201Z,21.57
2018-11-07T22:51:23.552Z,18.93
2018-11-07T22:53:51.909Z,20.90
2018-11-07T22:56:20.286Z,22.00
2018-11-07T22:58:48.674Z,20.33
2018-11-07T23:01:23.159Z,21.10
2018-11-07T23:03:52.888Z,21.40
2018-11-07T23:06:21.320Z,23.57
2018-11-07T23:08:49.672Z,22.53
2018-11-07T23:11:17.983Z,21.77
2018-11-07T23:13:47.187Z,22.10
2018-11-07T23:16:15.609Z,20.00
2018-11-07T23:18:44.045Z,20.77
2018-11-07T23:21:12.445Z,21.00
2018-11-07T23:23:40.875Z,20.23
2018-11-07T23:26:09.271Z,20.77
2018-11-07T23:28:37.639Z,19.53
2018-11-07T23:31:06.011Z,19.23
2018-11-07T23:33:34.349Z,21.30
2018-11-07T23:36:02.873Z,20.00
2018-11-07T23:38:31.275Z,19.90
2018-11-07T23:40:59.692Z,20.63
2018-11-07T23:43:28.079Z,18.10
2018-11-07T23:45:58.040Z,20.47
2018-11-07T23:48:26.430Z,18.70
2018-11-07T23:50:54.773Z,19.30
2018-11-07T23:53:23.077Z,21.27
2018-11-07T23:55:51.494Z,21.53
2018-11-07T23:58:19.920Z,22.70
